| time (UTC) | temp F | wind direction | speed knots | gust knots | rain 1hr in | rain 24hr in | rain mn in | humidity % | barometer mb |
| 20260502180543 | 87 | 108 | 6.1 | 13.0 | 0.00 | 0.00 | 0.00 | 25 | 1014.1 |
| 20260502164043 | 84 | 74 | 6.1 | 12.2 | 0.00 | 0.00 | 0.00 | 28 | 1014.3 |
| 20260502163543 | 83 | 98 | 7.0 | 13.9 | 0.00 | 0.00 | 0.00 | 28 | 1014.3 |
| 20260502163102 | 83 | 150 | 7.8 | 13.9 | 0.00 | 0.00 | 0.00 | 28 | 1014.4 |
| 20260502162540 | 83 | 75 | 5.2 | 12.2 | 0.00 | 0.00 | 0.00 | 28 | 1014.3 |
| 20260502162039 | 83 | 126 | 4.3 | 12.2 | 0.00 | 0.00 | 0.00 | 26 | 1014.4 |
| 20260502161555 | 83 | 124 | 4.3 | 10.4 | 0.00 | 0.00 | 0.00 | 25 | 1014.4 |
| 20260502161042 | 83 | 122 | 3.5 | 8.7 | 0.00 | 0.00 | 0.00 | 25 | 1014.5 |
| 20260502160537 | 83 | 108 | 1.7 | 7.0 | 0.00 | 0.00 | 0.00 | 24 | 1014.5 |
| 20260502152042 | 80 | 113 | 1.7 | 6.1 | 0.00 | 0.00 | 0.00 | 24 | 1014.2 |
| 20260502151553 | 80 | 85 | 0.9 | 7.8 | 0.00 | 0.00 | 0.00 | 24 | 1014.2 |
| 20260502151041 | 80 | 129 | 2.6 | 7.8 | 0.00 | 0.00 | 0.00 | 25 | 1014.1 |
| 20260502150541 | 80 | 0 | 0.9 | 6.1 | 0.00 | 0.00 | 0.00 | 25 | 1014.0 |
| 20260502150104 | 80 | 116 | 0.9 | 6.1 | 0.00 | 0.00 | 0.00 | 26 | 1013.9 |
| 20260502130541 | 70 | 0 | 0.0 | 3.5 | 0.00 | 0.00 | 0.00 | 28 | 1012.5 |
| 20260502130108 | 70 | 20 | 0.0 | 1.7 | 0.00 | 0.00 | 0.00 | 29 | 1012.6 |
| 20260502123543 | 70 | 0 | 0.0 | 0.0 | 0.00 | 0.00 | 0.00 | 29 | 1012.1 |
| 20260502123059 | 70 | 0 | 0.0 | 0.0 | 0.00 | 0.00 | 0.00 | 28 | 1012.1 |
| 20260502122542 | 70 | 0 | 0.0 | 0.0 | 0.00 | 0.00 | 0.00 | 28 | 1012.0 |
| 20260502122041 | 70 | 0 | 0.0 | 0.0 | 0.00 | 0.00 | 0.00 | 28 | 1012.0 |
| 20260502121548 | 71 | 0 | 0.0 | 0.9 | 0.00 | 0.00 | 0.00 | 27 | 1012.0 |
| 20260502121041 | 71 | 0 | 0.0 | 0.9 | 0.00 | 0.00 | 0.00 | 27 | 1012.0 |
| 20260502120544 | 71 | 0 | 0.0 | 0.0 | 0.00 | 0.00 | 0.00 | 27 | 1011.9 |
| 20260502115543 | 71 | 0 | 0.0 | 0.9 | 0.00 | 0.00 | 0.00 | 27 | 1011.9 |
| 20260502115040 | 71 | 0 | 0.0 | 0.9 | 0.00 | 0.00 | 0.00 | 27 | 1011.9 |
| 20260502114553 | 71 | 0 | 0.0 | 0.9 | 0.00 | 0.00 | 0.00 | 28 | 1011.9 |
| 20260502114040 | 70 | 0 | 0.0 | 0.0 | 0.00 | 0.00 | 0.00 | 28 | 1011.9 |
| 20260502113539 | 70 | 0 | 0.0 | 0.9 | 0.00 | 0.00 | 0.00 | 28 | 1011.8 |
| 20260502113050 | 71 | 0 | 0.0 | 0.9 | 0.00 | 0.00 | 0.00 | 28 | 1011.9 |
| 20260502112541 | 71 | 0 | 0.0 | 0.9 | 0.00 | 0.00 | 0.00 | 28 | 1011.8 |
| 20260502112042 | 71 | 0 | 0.0 | 0.9 | 0.00 | 0.00 | 0.00 | 28 | 1011.8 |
| 20260502111554 | 71 | 0 | 0.0 | 0.9 | 0.00 | 0.00 | 0.00 | 28 | 1011.7 |
| 20260502111041 | 71 | 0 | 0.0 | 0.9 | 0.00 | 0.00 | 0.00 | 28 | 1011.8 |
| 20260502110543 | 71 | 0 | 0.0 | 0.9 | 0.00 | 0.00 | 0.00 | 27 | 1011.7 |
| 20260502110052 | 70 | 0 | 0.0 | 0.9 | 0.00 | 0.00 | 0.00 | 27 | 1011.8 |
| 20260502105541 | 70 | 0 | 0.0 | 0.0 | 0.00 | 0.00 | 0.00 | 28 | 1011.8 |
| 20260502105044 | 71 | 0 | 0.0 | 0.9 | 0.00 | 0.00 | 0.00 | 27 | 1011.7 |
| 20260502104554 | 71 | 0 | 0.0 | 0.9 | 0.00 | 0.00 | 0.00 | 27 | 1011.6 |
| 20260502104040 | 71 | 0 | 0.0 | 0.9 | 0.00 | 0.00 | 0.00 | 26 | 1011.8 |
| 20260502103541 | 72 | 0 | 0.0 | 0.0 | 0.00 | 0.00 | 0.00 | 26 | 1011.6 |
| 20260502103054 | 72 | 0 | 0.0 | 0.9 | 0.00 | 0.00 | 0.00 | 26 | 1011.5 |
| 20260502102540 | 72 | 0 | 0.0 | 0.9 | 0.00 | 0.00 | 0.00 | 26 | 1011.4 |
| 20260502102044 | 72 | 0 | 0.0 | 1.7 | 0.00 | 0.00 | 0.00 | 26 | 1011.4 |
| 20260502101553 | 72 | 0 | 0.0 | 2.6 | 0.00 | 0.00 | 0.00 | 26 | 1011.3 |
| 20260502101045 | 72 | 0 | 0.0 | 2.6 | 0.00 | 0.00 | 0.00 | 26 | 1011.2 |
| 20260502100543 | 72 | 0 | 0.0 | 1.7 | 0.00 | 0.00 | 0.00 | 26 | 1011.3 |
| 20260502091043 | 73 | 11 | 0.0 | 0.9 | 0.00 | 0.00 | 0.00 | 25 | 1011.2 |
| 20260502090542 | 73 | 0 | 0.0 | 0.9 | 0.00 | 0.00 | 0.00 | 25 | 1011.2 |
| 20260502080105 | 74 | 360 | 0.9 | 3.5 | 0.00 | 0.00 | 0.00 | 22 | 1010.8 |
| 20260502071042 | 71 | 0 | 0.0 | 0.0 | 0.00 | 0.00 | 0.00 | 28 | 1010.3 |
| 20260502070541 | 72 | 0 | 0.0 | 0.0 | 0.00 | 0.00 | 0.00 | 28 | 1010.2 |
| 20260502070057 | 73 | 0 | 0.0 | 0.0 | 0.00 | 0.00 | 0.00 | 27 | 1010.4 |
| 20260502065544 | 73 | 0 | 0.0 | 0.0 | 0.00 | 0.00 | 0.00 | 27 | 1010.5 |
| 20260502065042 | 73 | 0 | 0.0 | 0.0 | 0.00 | 0.00 | 0.00 | 26 | 1010.1 |
| 20260502064552 | 74 | 0 | 0.0 | 0.0 | 0.00 | 0.00 | 0.00 | 26 | 1010.2 |
| 20260502064041 | 74 | 0 | 0.0 | 0.0 | 0.00 | 0.00 | 0.00 | 26 | 1010.2 |
| 20260502063541 | 74 | 0 | 0.0 | 0.0 | 0.00 | 0.00 | 0.00 | 25 | 1010.3 |
| 20260502063109 | 74 | 0 | 0.0 | 0.9 | 0.00 | 0.00 | 0.00 | 25 | 1010.2 |
| 20260502062541 | 74 | 0 | 0.0 | 1.7 | 0.00 | 0.00 | 0.00 | 25 | 1010.3 |
| 20260502062040 | 74 | 0 | 0.0 | 1.7 | 0.00 | 0.00 | 0.00 | 25 | 1010.1 |
| 20260502061552 | 74 | 203 | 0.0 | 1.7 | 0.00 | 0.00 | 0.00 | 25 | 1010.1 |
| 20260502061041 | 75 | 0 | 0.0 | 0.9 | 0.00 | 0.00 | 0.00 | 25 | 1010.0 |
| 20260502060541 | 75 | 226 | 0.0 | 0.9 | 0.00 | 0.00 | 0.00 | 24 | 1010.0 |
| 20260502060057 | 75 | 0 | 0.0 | 0.9 | 0.00 | 0.00 | 0.00 | 24 | 1010.0 |
| 20260502055542 | 75 | 0 | 0.0 | 0.0 | 0.00 | 0.00 | 0.00 | 24 | 1010.0 |
| 20260502055041 | 75 | 0 | 0.0 | 0.0 | 0.00 | 0.00 | 0.00 | 24 | 1010.1 |
| 20260502054550 | 76 | 0 | 0.0 | 0.9 | 0.00 | 0.00 | 0.00 | 23 | 1010.1 |
| 20260502054041 | 76 | 0 | 0.0 | 0.9 | 0.00 | 0.00 | 0.00 | 23 | 1009.9 |
| 20260502053541 | 76 | 0 | 0.0 | 2.6 | 0.00 | 0.00 | 0.00 | 22 | 1010.0 |
| 20260502053055 | 76 | 0 | 0.9 | 2.6 | 0.00 | 0.00 | 0.00 | 23 | 1010.0 |
| 20260502052541 | 77 | 246 | 0.9 | 2.6 | 0.00 | 0.00 | 0.00 | 23 | 1010.1 |
| 20260502052045 | 77 | 291 | 0.0 | 1.7 | 0.00 | 0.00 | 0.00 | 23 | 1010.0 |
| 20260502051548 | 78 | 270 | 0.0 | 0.9 | 0.00 | 0.00 | 0.00 | 22 | 1009.9 |
| 20260502051041 | 78 | 0 | 0.0 | 0.9 | 0.00 | 0.00 | 0.00 | 21 | 1009.9 |
| 20260502050541 | 79 | 0 | 0.0 | 0.9 | 0.00 | 0.00 | 0.00 | 20 | 1009.8 |
| 20260502050057 | 79 | 0 | 0.0 | 1.7 | 0.00 | 0.00 | 0.00 | 20 | 1009.7 |
| 20260502045541 | 80 | 274 | 0.0 | 1.7 | 0.00 | 0.00 | 0.00 | 20 | 1009.6 |
| 20260502045041 | 80 | 0 | 0.0 | 2.6 | 0.00 | 0.00 | 0.00 | 19 | 1009.7 |
| 20260502044549 | 80 | 0 | 0.0 | 2.6 | 0.00 | 0.00 | 0.00 | 20 | 1009.6 |
| 20260502044040 | 80 | 0 | 0.0 | 0.9 | 0.00 | 0.00 | 0.00 | 20 | 1009.5 |
| 20260502043540 | 80 | 0 | 0.0 | 0.0 | 0.00 | 0.00 | 0.00 | 20 | 1009.5 |
| 20260502043054 | 79 | 0 | 0.0 | 0.0 | 0.00 | 0.00 | 0.00 | 20 | 1009.4 |
| 20260502042541 | 79 | 0 | 0.0 | 0.0 | 0.00 | 0.00 | 0.00 | 20 | 1009.4 |
| 20260502042043 | 79 | 0 | 0.0 | 0.0 | 0.00 | 0.00 | 0.00 | 20 | 1009.4 |
| 20260502041554 | 79 | 0 | 0.0 | 0.0 | 0.00 | 0.00 | 0.00 | 21 | 1009.3 |
| 20260502041041 | 79 | 0 | 0.0 | 0.0 | 0.00 | 0.00 | 0.00 | 21 | 1009.1 |
| 20260502040541 | 79 | 0 | 0.0 | 0.0 | 0.00 | 0.00 | 0.00 | 21 | 1009.2 |
| 20260502040050 | 79 | 0 | 0.0 | 0.0 | 0.00 | 0.00 | 0.00 | 21 | 1009.1 |
| 20260502035541 | 80 | 0 | 0.0 | 0.0 | 0.00 | 0.00 | 0.00 | 21 | 1009.0 |
| 20260502035041 | 80 | 0 | 0.0 | 0.0 | 0.00 | 0.00 | 0.00 | 21 | 1009.1 |
| 20260502034555 | 81 | 0 | 0.0 | 0.0 | 0.00 | 0.00 | 0.00 | 20 | 1009.0 |
| 20260502034041 | 81 | 0 | 0.0 | 0.0 | 0.00 | 0.00 | 0.00 | 20 | 1008.9 |
| 20260502033542 | 82 | 0 | 0.0 | 0.0 | 0.00 | 0.00 | 0.00 | 19 | 1008.9 |
| 20260502033049 | 82 | 0 | 0.0 | 0.0 | 0.00 | 0.00 | 0.00 | 19 | 1008.8 |
| 20260502032541 | 82 | 0 | 0.0 | 0.0 | 0.00 | 0.00 | 0.00 | 19 | 1008.8 |
| 20260502032041 | 83 | 0 | 0.0 | 0.0 | 0.00 | 0.00 | 0.00 | 19 | 1008.8 |
| 20260502031553 | 83 | 0 | 0.0 | 0.0 | 0.00 | 0.00 | 0.00 | 19 | 1008.8 |
| 20260502031042 | 83 | 0 | 0.0 | 0.9 | 0.00 | 0.00 | 0.00 | 18 | 1008.7 |
| 20260502030542 | 84 | 0 | 0.0 | 0.9 | 0.00 | 0.00 | 0.00 | 18 | 1008.6 |
| 20260502030052 | 84 | 0 | 0.0 | 0.9 | 0.00 | 0.00 | 0.00 | 18 | 1008.6 |
| 20260502025541 | 84 | 0 | 0.0 | 1.7 | 0.00 | 0.00 | 0.00 | 18 | 1008.5 |
| 20260502025044 | 84 | 0 | 0.0 | 1.7 | 0.00 | 0.00 | 0.00 | 18 | 1008.5 |
| 20260502024552 | 84 | 0 | 0.0 | 1.7 | 0.00 | 0.00 | 0.00 | 18 | 1008.5 |
| 20260502024041 | 85 | 0 | 0.0 | 0.9 | 0.00 | 0.00 | 0.00 | 17 | 1008.5 |
| 20260502023542 | 85 | 0 | 0.0 | 0.9 | 0.00 | 0.00 | 0.00 | 17 | 1008.3 |
| 20260502023050 | 85 | 0 | 0.0 | 0.9 | 0.00 | 0.00 | 0.00 | 17 | 1008.3 |
| 20260502022542 | 85 | 0 | 0.0 | 0.9 | 0.00 | 0.00 | 0.00 | 17 | 1008.3 |
| 20260502022041 | 86 | 0 | 0.0 | 2.6 | 0.00 | 0.00 | 0.00 | 17 | 1008.2 |
| 20260502021549 | 86 | 0 | 0.0 | 2.6 | 0.00 | 0.00 | 0.00 | 17 | 1008.2 |
| 20260502021041 | 86 | 207 | 0.0 | 2.6 | 0.00 | 0.00 | 0.00 | 17 | 1008.0 |
| 20260502020541 | 87 | 0 | 0.0 | 2.6 | 0.00 | 0.00 | 0.00 | 17 | 1008.1 |
| 20260502020052 | 87 | 272 | 0.0 | 3.5 | 0.00 | 0.00 | 0.00 | 17 | 1008.2 |
| 20260502015541 | 87 | 250 | 0.0 | 5.2 | 0.00 | 0.00 | 0.00 | 18 | 1008.1 |
| 20260502015042 | 88 | 260 | 0.9 | 10.4 | 0.00 | 0.00 | 0.00 | 18 | 1008.0 |
| 20260502014553 | 88 | 286 | 2.6 | 10.4 | 0.00 | 0.00 | 0.00 | 18 | 1008.1 |
| 20260502014040 | 88 | 276 | 4.3 | 9.6 | 0.00 | 0.00 | 0.00 | 17 | 1008.1 |
| 20260502013543 | 89 | 247 | 3.5 | 9.6 | 0.00 | 0.00 | 0.00 | 17 | 1008.0 |
| 20260502013050 | 89 | 236 | 3.5 | 8.7 | 0.00 | 0.00 | 0.00 | 17 | 1007.9 |
| 20260502012540 | 89 | 260 | 3.5 | 7.0 | 0.00 | 0.00 | 0.00 | 16 | 1007.9 |
| 20260502012042 | 90 | 230 | 1.7 | 5.2 | 0.00 | 0.00 | 0.00 | 17 | 1008.0 |
| 20260502011546 | 90 | 240 | 0.9 | 5.2 | 0.00 | 0.00 | 0.00 | 17 | 1007.9 |
| 20260502011038 | 90 | 257 | 1.7 | 3.5 | 0.00 | 0.00 | 0.00 | 16 | 1007.9 |
| 20260502010541 | 90 | 0 | 0.0 | 7.8 | 0.00 | 0.00 | 0.00 | 17 | 1008.0 |
| 20260502010051 | 90 | 223 | 0.9 | 7.8 | 0.00 | 0.00 | 0.00 | 17 | 1008.0 |
| 20260502005540 | 90 | 214 | 1.7 | 7.8 | 0.00 | 0.00 | 0.00 | 17 | 1008.0 |
| 20260502005040 | 90 | 222 | 2.6 | 7.8 | 0.00 | 0.00 | 0.00 | 17 | 1008.1 |
| 20260502004546 | 90 | 244 | 2.6 | 7.0 | 0.00 | 0.00 | 0.00 | 18 | 1008.1 |
| 20260502004042 | 90 | 233 | 3.5 | 7.0 | 0.00 | 0.00 | 0.00 | 18 | 1008.1 |
| 20260502003539 | 90 | 261 | 3.5 | 7.0 | 0.00 | 0.00 | 0.00 | 17 | 1008.0 |
| 20260502003045 | 90 | 195 | 2.6 | 7.8 | 0.00 | 0.00 | 0.00 | 18 | 1008.2 |
| 20260502002541 | 90 | 206 | 3.5 | 8.7 | 0.00 | 0.00 | 0.00 | 18 | 1008.1 |
| 20260502002043 | 90 | 214 | 4.3 | 8.7 | 0.00 | 0.00 | 0.00 | 18 | 1008.1 |
| 20260502001546 | 90 | 226 | 4.3 | 7.8 | 0.00 | 0.00 | 0.00 | 18 | 1008.3 |
| 20260502001042 | 91 | 220 | 1.7 | 7.0 | 0.00 | 0.00 | 0.00 | 18 | 1008.2 |
| 20260502000541 | 90 | 262 | 0.9 | 6.1 | 0.00 | 0.00 | 0.00 | 18 | 1008.3 |
| 20260502000058 | 91 | 288 | 1.7 | 6.1 | 0.00 | 0.00 | 0.00 | 18 | 1008.2 |
| 20260501235541 | 90 | 217 | 0.9 | 7.0 | 0.00 | 0.00 | 0.00 | 18 | 1008.3 |
| 20260501235041 | 90 | 219 | 1.7 | 7.0 | 0.00 | 0.00 | 0.00 | 18 | 1008.3 |
| 20260501234550 | 90 | 282 | 2.6 | 7.8 | 0.00 | 0.00 | 0.00 | 19 | 1008.3 |
| 20260501234041 | 90 | 142 | 2.6 | 7.8 | 0.00 | 0.00 | 0.00 | 18 | 1008.5 |
| 20260501233541 | 90 | 217 | 1.7 | 7.0 | 0.00 | 0.00 | 0.00 | 19 | 1008.4 |
| 20260501233046 | 90 | 231 | 3.5 | 7.0 | 0.00 | 0.00 | 0.00 | 19 | 1008.4 |
| 20260501232542 | 90 | 218 | 2.6 | 7.0 | 0.00 | 0.00 | 0.00 | 19 | 1008.4 |
| 20260501232042 | 89 | 250 | 2.6 | 6.1 | 0.00 | 0.00 | 0.00 | 19 | 1008.5 |
| 20260501231558 | 90 | 184 | 1.7 | 7.0 | 0.00 | 0.00 | 0.00 | 19 | 1008.6 |
| 20260501231043 | 90 | 283 | 1.7 | 7.0 | 0.00 | 0.00 | 0.00 | 19 | 1008.6 |
| 20260501230539 | 90 | 288 | 1.7 | 7.0 | 0.00 | 0.00 | 0.00 | 20 | 1008.6 |
| 20260501230055 | 90 | 260 | 3.5 | 8.7 | 0.00 | 0.00 | 0.00 | 20 | 1008.7 |
| 20260501225545 | 89 | 244 | 3.5 | 8.7 | 0.00 | 0.00 | 0.00 | 20 | 1008.7 |
| 20260501225040 | 89 | 190 | 2.6 | 8.7 | 0.00 | 0.00 | 0.00 | 20 | 1008.8 |
| 20260501224600 | 89 | 308 | 1.7 | 7.8 | 0.00 | 0.00 | 0.00 | 20 | 1008.8 |
| 20260501224041 | 89 | 292 | 2.6 | 7.0 | 0.00 | 0.00 | 0.00 | 20 | 1009.0 |
| 20260501223541 | 90 | 263 | 1.7 | 7.0 | 0.00 | 0.00 | 0.00 | 19 | 1009.1 |
| 20260501223051 | 90 | 314 | 1.7 | 6.1 | 0.00 | 0.00 | 0.00 | 20 | 1009.0 |
| 20260501222542 | 89 | 204 | 0.9 | 4.3 | 0.00 | 0.00 | 0.00 | 20 | 1009.1 |
| 20260501222042 | 89 | 265 | 0.0 | 4.3 | 0.00 | 0.00 | 0.00 | 20 | 1009.2 |
| 20260501221604 | 89 | 241 | 1.7 | 7.0 | 0.00 | 0.00 | 0.00 | 20 | 1009.4 |
| 20260501221041 | 90 | 0 | 0.0 | 7.0 | 0.00 | 0.00 | 0.00 | 20 | 1009.4 |
| 20260501220541 | 88 | 210 | 2.6 | 9.6 | 0.00 | 0.00 | 0.00 | 21 | 1009.4 |
| 20260501220050 | 88 | 113 | 1.7 | 9.6 | 0.00 | 0.00 | 0.00 | 22 | 1009.5 |
| 20260501215541 | 88 | 200 | 4.3 | 9.6 | 0.00 | 0.00 | 0.00 | 21 | 1009.7 |
| 20260501215039 | 88 | 184 | 1.7 | 9.6 | 0.00 | 0.00 | 0.00 | 20 | 1009.8 |
| 20260501214549 | 88 | 314 | 4.3 | 9.6 | 0.00 | 0.00 | 0.00 | 18 | 1009.8 |
| 20260501214042 | 88 | 285 | 2.6 | 9.6 | 0.00 | 0.00 | 0.00 | 20 | 1009.9 |
| 20260501213541 | 87 | 207 | 2.6 | 7.8 | 0.00 | 0.00 | 0.00 | 20 | 1009.9 |
| 20260501213052 | 87 | 219 | 2.6 | 7.8 | 0.00 | 0.00 | 0.00 | 20 | 1010.0 |
| 20260501212541 | 88 | 244 | 1.7 | 7.8 | 0.00 | 0.00 | 0.00 | 20 | 1010.2 |
| 20260501212041 | 87 | 0 | 0.9 | 7.8 | 0.00 | 0.00 | 0.00 | 20 | 1010.1 |
| 20260501211606 | 86 | 142 | 0.9 | 8.7 | 0.00 | 0.00 | 0.00 | 20 | 1010.3 |
| 20260501211040 | 87 | 161 | 2.6 | 8.7 | 0.00 | 0.00 | 0.00 | 21 | 1010.4 |
| 20260501210539 | 87 | 183 | 0.9 | 5.2 | 0.00 | 0.00 | 0.00 | 20 | 1010.6 |
| 20260501210049 | 87 | 283 | 1.7 | 7.8 | 0.00 | 0.00 | 0.00 | 20 | 1010.6 |
| 20260501205541 | 86 | 288 | 2.6 | 7.8 | 0.00 | 0.00 | 0.00 | 20 | 1010.7 |
| 20260501205041 | 86 | 9 | 3.5 | 7.0 | 0.00 | 0.00 | 0.00 | 21 | 1010.7 |
| 20260501204549 | 86 | 256 | 2.6 | 7.0 | 0.00 | 0.00 | 0.00 | 21 | 1010.7 |
| 20260501204041 | 86 | 259 | 1.7 | 8.7 | 0.00 | 0.00 | 0.00 | 22 | 1010.9 |
| 20260501203541 | 86 | 294 | 0.9 | 8.7 | 0.00 | 0.00 | 0.00 | 22 | 1010.9 |
| 20260501203044 | 85 | 168 | 2.6 | 7.8 | 0.00 | 0.00 | 0.00 | 23 | 1010.9 |
| 20260501202541 | 86 | 231 | 2.6 | 7.8 | 0.00 | 0.00 | 0.00 | 24 | 1011.0 |
| 20260501202041 | 85 | 245 | 0.9 | 9.6 | 0.00 | 0.00 | 0.00 | 25 | 1010.9 |
| 20260501201545 | 86 | 244 | 3.5 | 9.6 | 0.00 | 0.00 | 0.00 | 26 | 1011.1 |
| 20260501201039 | 86 | 269 | 2.6 | 9.6 | 0.00 | 0.00 | 0.00 | 25 | 1010.9 |
| 20260501200541 | 86 | 257 | 1.7 | 7.8 | 0.00 | 0.00 | 0.00 | 25 | 1011.1 |
| 20260501200046 | 86 | 302 | 2.6 | 7.8 | 0.00 | 0.00 | 0.00 | 26 | 1011.0 |
| 20260501195541 | 85 | 240 | 0.9 | 7.8 | 0.00 | 0.00 | 0.00 | 25 | 1011.1 |
| 20260501195044 | 85 | 295 | 0.9 | 7.0 | 0.00 | 0.00 | 0.00 | 26 | 1011.2 |
| 20260501194551 | 85 | 306 | 0.0 | 7.0 | 0.00 | 0.00 | 0.00 | 26 | 1011.3 |
| 20260501194040 | 84 | 285 | 2.6 | 7.0 | 0.00 | 0.00 | 0.00 | 27 | 1011.4 |
| 20260501193541 | 85 | 301 | 3.5 | 6.1 | 0.00 | 0.00 | 0.00 | 26 | 1011.6 |
| 20260501193046 | 85 | 313 | 1.7 | 7.0 | 0.00 | 0.00 | 0.00 | 27 | 1011.4 |
| 20260501192542 | 85 | 168 | 1.7 | 8.7 | 0.00 | 0.00 | 0.00 | 27 | 1011.6 |
| 20260501192039 | 84 | 250 | 2.6 | 8.7 | 0.00 | 0.00 | 0.00 | 27 | 1011.7 |
| 20260501191548 | 84 | 136 | 3.5 | 8.7 | 0.00 | 0.00 | 0.00 | 27 | 1011.9 |
| 20260501191041 | 84 | 279 | 1.7 | 7.0 | 0.00 | 0.00 | 0.00 | 27 | 1011.9 |
| 20260501190540 | 84 | 232 | 2.6 | 7.0 | 0.00 | 0.00 | 0.00 | 28 | 1011.9 |
| 20260501190047 | 84 | 264 | 1.7 | 7.0 | 0.00 | 0.00 | 0.00 | 27 | 1011.9 |
| 20260501185541 | 83 | 284 | 1.7 | 6.1 | 0.00 | 0.00 | 0.00 | 27 | 1012.1 |
| 20260501185044 | 83 | 203 | 0.9 | 7.8 | 0.00 | 0.00 | 0.00 | 28 | 1012.0 |
| 20260501184543 | 82 | 134 | 2.6 | 7.8 | 0.00 | 0.00 | 0.00 | 28 | 1012.2 |
| 20260501184042 | 83 | 216 | 4.3 | 7.8 | 0.00 | 0.00 | 0.00 | 27 | 1012.3 |
| 20260501183539 | 83 | 277 | 0.0 | 6.1 | 0.00 | 0.00 | 0.00 | 29 | 1012.3 |
| 20260501183050 | 82 | 110 | 2.6 | 6.1 | 0.00 | 0.00 | 0.00 | 28 | 1012.3 |
| 20260501182540 | 83 | 229 | 1.7 | 6.1 | 0.00 | 0.00 | 0.00 | 28 | 1012.4 |
| 20260501182041 | 83 | 121 | 2.6 | 6.1 | 0.00 | 0.00 | 0.00 | 28 | 1012.5 |
| 20260501181551 | 83 | 186 | 0.0 | 4.3 | 0.00 | 0.00 | 0.00 | 28 | 1012.5 |
| 20260501181040 | 82 | 0 | 0.0 | 6.1 | 0.00 | 0.00 | 0.00 | 29 | 1012.7 |